Time;durP1;ratioP1;P1;durP2;ratioP2;P2;SDS_P1;SDS_P2;PMS_P1;PMS_P2;Temp;Humidity;BMP_temperature;BMP_pressure;BME280_temperature;BME280_humidity;BME280_pressure;Samples;Min_cycle;Max_cycle;Signal;HPM_P1;HPM_P2
2023/02/07 00:00:24;;;;;;;0.32;0.32;;;;;;;;;;5010587;28;20061;-89
2023/02/07 00:02:50;;;;;;;0.65;0.60;;;;;;;;;;4997482;28;20492;-89
2023/02/07 00:05:17;;;;;;;0.47;0.47;;;;;;;;;;4994884;28;20046;-89
2023/02/07 00:07:44;;;;;;;0.40;0.40;;;;;;;;;;5007615;28;20046;-89
2023/02/07 00:10:10;;;;;;;0.50;0.50;;;;;;;;;;5006470;28;20057;-90
2023/02/07 00:12:37;;;;;;;2.20;2.10;;;;;;;;;;5015967;28;20057;-88
2023/02/07 00:15:03;;;;;;;0.28;0.20;;;;;;;;;;4994942;28;20049;-89
2023/02/07 00:17:32;;;;;;;0.57;0.57;;;;;;;;;;4994338;28;20042;-89
2023/02/07 00:19:58;;;;;;;0.40;0.40;;;;;;;;;;4975015;28;20042;-89
2023/02/07 00:22:25;;;;;;;0.40;0.40;;;;;;;;;;4974836;28;20155;-88
2023/02/07 00:24:51;;;;;;;0.47;0.47;;;;;;;;;;4975009;28;20043;-88
2023/02/07 00:27:18;;;;;;;0.38;0.35;;;;;;;;;;4985034;28;20047;-89
2023/02/07 00:29:46;;;;;;;0.90;0.90;;;;;;;;;;4994110;28;20054;-89
2023/02/07 00:32:12;;;;;;;1.10;0.88;;;;;;;;;;4994244;28;20050;-88
2023/02/07 00:34:40;;;;;;;0.65;0.65;;;;;;;;;;4994364;28;20100;-89
2023/02/07 00:37:07;;;;;;;0.38;0.38;;;;;;;;;;4993810;28;20504;-89
2023/02/07 00:39:34;;;;;;;0.65;0.65;;;;;;;;;;4994365;28;20042;-89
2023/02/07 00:42:00;;;;;;;0.60;0.60;;;;;;;;;;4994065;28;20051;-90
2023/02/07 00:44:27;;;;;;;0.55;0.55;;;;;;;;;;4991288;28;20054;-89
2023/02/07 00:46:53;;;;;;;0.75;0.75;;;;;;;;;;4993822;28;20053;-89
2023/02/07 00:49:20;;;;;;;1.58;1.48;;;;;;;;;;4993940;28;20061;-89
2023/02/07 00:51:48;;;;;;;0.70;0.70;;;;;;;;;;4993920;28;20093;-88
2023/02/07 00:54:14;;;;;;;0.40;0.40;;;;;;;;;;4993147;28;20054;-89
2023/02/07 00:56:41;;;;;;;0.77;0.77;;;;;;;;;;4993329;28;20057;-88
2023/02/07 00:59:07;;;;;;;0.55;0.55;;;;;;;;;;4993090;28;20050;-89
2023/02/07 01:01:34;;;;;;;0.88;0.88;;;;;;;;;;4993423;28;20062;-90
2023/02/07 01:04:00;;;;;;;0.70;0.70;;;;;;;;;;4997675;28;20054;-90
2023/02/07 01:06:28;;;;;;;0.98;0.98;;;;;;;;;;4997954;28;20055;-89
2023/02/07 01:08:57;;;;;;;0.65;0.65;;;;;;;;;;4997268;28;20562;-89
2023/02/07 01:11:24;;;;;;;0.55;0.55;;;;;;;;;;4997259;28;20050;-89
2023/02/07 01:13:51;;;;;;;0.60;0.60;;;;;;;;;;4997452;28;20729;-89
2023/02/07 01:16:18;;;;;;;1.23;1.13;;;;;;;;;;4994645;28;20061;-89
2023/02/07 01:18:45;;;;;;;0.52;0.52;;;;;;;;;;4984027;28;20050;-90
2023/02/07 01:21:15;;;;;;;0.55;0.55;;;;;;;;;;4997477;28;20050;-90
2023/02/07 01:23:41;;;;;;;0.50;0.50;;;;;;;;;;4997019;28;20522;-90
2023/02/07 01:26:10;;;;;;;1.52;1.45;;;;;;;;;;4997917;28;20527;-90
2023/02/07 01:28:36;;;;;;;1.08;1.08;;;;;;;;;;4997255;28;20042;-89
2023/02/07 01:31:06;;;;;;;1.67;1.58;;;;;;;;;;4997177;28;20050;-89
2023/02/07 01:33:33;;;;;;;0.45;0.45;;;;;;;;;;4998238;28;20050;-89
2023/02/07 01:35:59;;;;;;;0.75;0.75;;;;;;;;;;4994491;28;20043;-89
2023/02/07 01:38:26;;;;;;;0.73;0.73;;;;;;;;;;4997320;28;20050;-89
2023/02/07 01:40:52;;;;;;;0.65;0.65;;;;;;;;;;4997144;28;20393;-89
2023/02/07 01:43:23;;;;;;;0.85;0.85;;;;;;;;;;4996888;28;20507;-89
2023/02/07 01:45:50;;;;;;;0.57;0.57;;;;;;;;;;4996767;28;20057;-89
2023/02/07 01:48:20;;;;;;;1.23;1.00;;;;;;;;;;4997212;28;20050;-89
2023/02/07 01:50:48;;;;;;;0.52;0.52;;;;;;;;;;4997018;28;20126;-89
2023/02/07 01:53:17;;;;;;;0.40;0.35;;;;;;;;;;4992904;28;20050;-90
2023/02/07 01:55:45;;;;;;;0.52;0.52;;;;;;;;;;4996959;28;20050;-88
2023/02/07 01:58:12;;;;;;;0.50;0.50;;;;;;;;;;4997028;28;20504;-89
2023/02/07 02:00:40;;;;;;;0.75;0.75;;;;;;;;;;5004966;28;20447;-89
2023/02/07 02:03:07;;;;;;;1.00;1.00;;;;;;;;;;5016982;28;20058;-90
2023/02/07 02:05:34;;;;;;;1.20;1.08;;;;;;;;;;4997732;28;20054;-89
2023/02/07 02:08:01;;;;;;;0.75;0.73;;;;;;;;;;4994430;28;20061;-89
2023/02/07 02:10:32;;;;;;;0.55;0.55;;;;;;;;;;4996647;28;20374;-89
2023/02/07 02:13:05;;;;;;;0.70;0.70;;;;;;;;;;4995713;28;20424;-90
2023/02/07 02:15:35;;;;;;;0.80;0.80;;;;;;;;;;4996307;28;20047;-89
2023/02/07 02:18:14;;;;;;;1.00;1.00;;;;;;;;;;4996395;28;20054;-89
2023/02/07 02:21:07;;;;;;;0.52;0.52;;;;;;;;;;4996520;28;20047;-90
2023/02/07 02:23:42;;;;;;;0.98;0.55;;;;;;;;;;4937533;29;20148;-90
2023/02/07 02:26:32;;;;;;;0.38;0.35;;;;;;;;;;4934863;29;20066;-90
2023/02/07 02:29:29;;;;;;;0.80;0.80;;;;;;;;;;4921590;29;20048;-89
2023/02/07 02:32:22;;;;;;;1.13;1.13;;;;;;;;;;4936302;29;20056;-89
2023/02/07 02:34:53;;;;;;;0.60;0.60;;;;;;;;;;4946611;29;20059;-90
2023/02/07 02:37:24;;;;;;;0.43;0.43;;;;;;;;;;4955432;29;20062;-90
2023/02/07 02:39:53;;;;;;;1.13;1.13;;;;;;;;;;4954722;29;20497;-90
2023/02/07 02:42:24;;;;;;;0.32;0.32;;;;;;;;;;4937952;29;20051;-90
2023/02/07 02:44:53;;;;;;;1.17;1.17;;;;;;;;;;4935892;29;20055;-90
2023/02/07 02:47:20;;;;;;;0.73;0.73;;;;;;;;;;4935827;29;20138;-89
2023/02/07 02:49:47;;;;;;;2.42;2.33;;;;;;;;;;4934824;29;20055;-88
2023/02/07 02:52:15;;;;;;;3.05;2.35;;;;;;;;;;4935572;29;20059;-89
2023/02/07 02:54:41;;;;;;;0.45;0.45;;;;;;;;;;4944239;29;20055;-89
2023/02/07 02:57:15;;;;;;;0.88;0.88;;;;;;;;;;4954427;29;20521;-89
2023/02/07 02:59:51;;;;;;;1.75;1.65;;;;;;;;;;4971459;28;20057;-90
2023/02/07 03:02:22;;;;;;;0.68;0.68;;;;;;;;;;4995751;28;20415;-90
2023/02/07 03:04:57;;;;;;;0.68;0.68;;;;;;;;;;4996087;28;20248;-89
2023/02/07 03:07:33;;;;;;;0.93;0.93;;;;;;;;;;4996082;28;20109;-89
2023/02/07 03:10:04;;;;;;;1.52;1.48;;;;;;;;;;4996001;28;20049;-90
2023/02/07 03:12:34;;;;;;;1.10;1.10;;;;;;;;;;4996671;28;20046;-89
2023/02/07 03:15:02;;;;;;;1.55;1.40;;;;;;;;;;4994910;28;20061;-88
2023/02/07 03:17:32;;;;;;;0.88;0.88;;;;;;;;;;4999543;28;20082;-89
2023/02/07 03:20:03;;;;;;;1.25;1.23;;;;;;;;;;4996220;28;20087;-90
2023/02/07 03:22:33;;;;;;;0.65;0.65;;;;;;;;;;4996315;28;20054;-90
2023/02/07 03:25:01;;;;;;;0.82;0.82;;;;;;;;;;4997546;28;20050;-90
2023/02/07 03:27:28;;;;;;;0.85;0.85;;;;;;;;;;5008585;28;20054;-89
2023/02/07 03:29:57;;;;;;;0.80;0.80;;;;;;;;;;5008758;28;20046;-90
2023/02/07 03:32:25;;;;;;;1.67;1.58;;;;;;;;;;5005256;28;20073;-89
2023/02/07 03:34:53;;;;;;;3.45;1.70;;;;;;;;;;4997375;28;20046;-89
2023/02/07 03:37:22;;;;;;;1.58;1.58;;;;;;;;;;4998730;28;20054;-90
2023/02/07 03:39:50;;;;;;;0.52;0.52;;;;;;;;;;5007427;28;20057;-89
2023/02/07 03:42:20;;;;;;;1.63;1.52;;;;;;;;;;5006061;28;20053;-88
2023/02/07 03:44:47;;;;;;;0.57;0.57;;;;;;;;;;5006074;28;20062;-89
2023/02/07 03:47:16;;;;;;;1.52;1.38;;;;;;;;;;5006733;28;20058;-89
2023/02/07 03:49:43;;;;;;;0.68;0.68;;;;;;;;;;5006860;28;20069;-88
2023/02/07 03:52:09;;;;;;;1.25;1.15;;;;;;;;;;5004159;28;20046;-89
2023/02/07 03:54:36;;;;;;;0.57;0.57;;;;;;;;;;5007142;28;20062;-90
2023/02/07 03:57:04;;;;;;;0.15;0.15;;;;;;;;;;5007449;28;20054;-89
2023/02/07 03:59:30;;;;;;;0.82;0.80;;;;;;;;;;5007657;28;20042;-90
2023/02/07 04:01:57;;;;;;;0.20;0.20;;;;;;;;;;5002299;28;20062;-90
2023/02/07 04:04:23;;;;;;;0.55;0.55;;;;;;;;;;4998390;28;20058;-88
2023/02/07 04:06:50;;;;;;;0.57;0.57;;;;;;;;;;4995008;28;20106;-89
2023/02/07 04:09:16;;;;;;;1.55;1.45;;;;;;;;;;4992319;28;20050;-89
2023/02/07 04:11:43;;;;;;;0.95;0.95;;;;;;;;;;4994965;28;20065;-89
2023/02/07 04:14:11;;;;;;;0.73;0.73;;;;;;;;;;4995380;28;20058;-90
2023/02/07 04:16:37;;;;;;;0.73;0.73;;;;;;;;;;4994832;28;20046;-90
2023/02/07 04:19:04;;;;;;;8.32;3.30;;;;;;;;;;4994574;28;20057;-89
2023/02/07 04:21:30;;;;;;;0.60;0.60;;;;;;;;;;4995072;28;20046;-88
2023/02/07 04:23:57;;;;;;;0.65;0.65;;;;;;;;;;4991879;28;20058;-89
2023/02/07 04:26:23;;;;;;;0.63;0.63;;;;;;;;;;4993923;28;20042;-89
2023/02/07 04:28:50;;;;;;;0.63;0.63;;;;;;;;;;4994076;28;20049;-89
2023/02/07 04:31:18;;;;;;;0.43;0.43;;;;;;;;;;4995156;28;20050;-89
2023/02/07 04:33:44;;;;;;;0.68;0.68;;;;;;;;;;4998832;28;20054;-90
2023/02/07 04:36:11;;;;;;;0.57;0.57;;;;;;;;;;4996581;28;20043;-88
2023/02/07 04:38:38;;;;;;;0.82;0.82;;;;;;;;;;4998430;28;20047;-88
2023/02/07 04:41:05;;;;;;;1.13;1.13;;;;;;;;;;4998865;28;20057;-89
2023/02/07 04:43:32;;;;;;;0.93;0.93;;;;;;;;;;4998728;28;20050;-90
2023/02/07 04:45:58;;;;;;;0.32;0.32;;;;;;;;;;4999261;28;20061;-88
2023/02/07 04:48:26;;;;;;;0.45;0.45;;;;;;;;;;5001184;28;20511;-90
2023/02/07 04:50:53;;;;;;;0.08;0.08;;;;;;;;;;4999087;28;20400;-91
2023/02/07 04:53:19;;;;;;;0.28;0.28;;;;;;;;;;4998977;28;20065;-90
2023/02/07 04:55:48;;;;;;;0.57;0.57;;;;;;;;;;4998386;28;20054;-89
2023/02/07 04:58:14;;;;;;;0.52;0.52;;;;;;;;;;4998823;28;20062;-90
2023/02/07 05:00:41;;;;;;;2.17;2.08;;;;;;;;;;4990293;28;20081;-89
2023/02/07 05:03:08;;;;;;;0.43;0.43;;;;;;;;;;5017569;28;20049;-89
2023/02/07 05:05:37;;;;;;;0.82;0.82;;;;;;;;;;5017609;28;20444;-89
2023/02/07 05:08:04;;;;;;;0.40;0.40;;;;;;;;;;5018371;28;20042;-89
2023/02/07 05:10:30;;;;;;;1.20;1.15;;;;;;;;;;5019406;28;20050;-90
2023/02/07 05:12:57;;;;;;;0.43;0.43;;;;;;;;;;5018652;28;20042;-89
2023/02/07 05:15:23;;;;;;;0.40;0.40;;;;;;;;;;5019126;28;20054;-90
2023/02/07 05:17:51;;;;;;;1.40;1.38;;;;;;;;;;5018253;28;20057;-90
2023/02/07 05:20:17;;;;;;;0.88;0.88;;;;;;;;;;5016411;28;20488;-90
2023/02/07 05:22:45;;;;;;;0.35;0.32;;;;;;;;;;5017387;28;20046;-88
2023/02/07 05:25:12;;;;;;;0.40;0.40;;;;;;;;;;5019295;28;20496;-89
2023/02/07 05:27:38;;;;;;;0.50;0.40;;;;;;;;;;5018503;28;20444;-90
2023/02/07 05:30:05;;;;;;;0.73;0.73;;;;;;;;;;5017548;28;20042;-89
2023/02/07 05:35:16;;;;;;;0.60;0.60;;;;;;;;;;5016015;28;20057;-89
2023/02/07 05:37:43;;;;;;;0.82;0.82;;;;;;;;;;5016278;28;20053;-88
2023/02/07 05:40:11;;;;;;;1.13;1.13;;;;;;;;;;5015754;28;20045;-88
2023/02/07 05:42:38;;;;;;;0.75;0.75;;;;;;;;;;5016608;28;20073;-89
2023/02/07 05:45:05;;;;;;;0.90;0.90;;;;;;;;;;5016539;28;20077;-89
2023/02/07 05:47:32;;;;;;;1.63;1.52;;;;;;;;;;5016690;28;20504;-90
2023/02/07 05:49:58;;;;;;;0.82;0.82;;;;;;;;;;5016985;28;20042;-90
2023/02/07 05:52:25;;;;;;;0.70;0.70;;;;;;;;;;5016428;28;20096;-90
2023/02/07 05:54:51;;;;;;;0.50;0.50;;;;;;;;;;5016721;28;20415;-90
2023/02/07 05:57:19;;;;;;;0.70;0.70;;;;;;;;;;5017880;28;20046;-90
2023/02/07 05:59:46;;;;;;;1.92;1.83;;;;;;;;;;5017226;28;20046;-90
2023/02/07 06:02:12;;;;;;;0.93;0.93;;;;;;;;;;5000944;28;20042;-89
2023/02/07 06:04:39;;;;;;;1.17;1.13;;;;;;;;;;5009011;28;20049;-91
2023/02/07 06:07:06;;;;;;;1.27;1.27;;;;;;;;;;4996638;28;20046;-90
2023/02/07 06:09:32;;;;;;;0.73;0.73;;;;;;;;;;5000067;28;20051;-90
2023/02/07 06:11:59;;;;;;;0.73;0.65;;;;;;;;;;5002759;28;20061;-90
2023/02/07 06:14:27;;;;;;;1.42;1.40;;;;;;;;;;5010864;28;20057;-90
2023/02/07 06:16:53;;;;;;;1.95;1.85;;;;;;;;;;5001947;28;20042;-91
2023/02/07 06:19:20;;;;;;;2.63;2.53;;;;;;;;;;5010109;28;20467;-90
2023/02/07 06:21:46;;;;;;;1.33;1.30;;;;;;;;;;5018522;28;20499;-91
2023/02/07 06:24:13;;;;;;;1.63;1.52;;;;;;;;;;5015695;28;20057;-89
2023/02/07 06:26:39;;;;;;;7.03;2.17;;;;;;;;;;4995906;28;20480;-89
2023/02/07 06:29:06;;;;;;;0.82;0.80;;;;;;;;;;5003261;28;20061;-88
2023/02/07 06:31:34;;;;;;;2.00;1.90;;;;;;;;;;5003740;28;20043;-89
2023/02/07 06:34:00;;;;;;;1.60;1.50;;;;;;;;;;5010101;28;20046;-89
2023/02/07 06:36:27;;;;;;;1.38;1.27;;;;;;;;;;5014683;28;20108;-90
2023/02/07 06:38:54;;;;;;;1.73;1.55;;;;;;;;;;5001338;28;20435;-89
2023/02/07 06:41:21;;;;;;;2.15;2.05;;;;;;;;;;5005079;28;20108;-89
2023/02/07 06:43:47;;;;;;;1.15;1.13;;;;;;;;;;5009395;28;20078;-90
2023/02/07 06:46:14;;;;;;;1.08;1.05;;;;;;;;;;4990820;28;20055;-89
2023/02/07 06:48:42;;;;;;;2.63;2.42;;;;;;;;;;4995524;28;20050;-89
2023/02/07 06:51:08;;;;;;;1.92;1.83;;;;;;;;;;4992034;28;20046;-89
2023/02/07 06:53:35;;;;;;;2.25;2.15;;;;;;;;;;4994833;28;20093;-89
2023/02/07 06:56:01;;;;;;;2.13;2.03;;;;;;;;;;4991075;28;20118;-89
2023/02/07 06:58:28;;;;;;;2.03;1.92;;;;;;;;;;5009723;28;20068;-89
2023/02/07 07:00:54;;;;;;;2.88;2.67;;;;;;;;;;4993569;28;20081;-89
2023/02/07 07:03:25;;;;;;;2.90;2.70;;;;;;;;;;4996066;28;20065;-89
2023/02/07 07:05:53;;;;;;;2.58;2.35;;;;;;;;;;4994588;28;20048;-89
2023/02/07 07:08:20;;;;;;;1.85;1.75;;;;;;;;;;4995573;28;20145;-90
2023/02/07 07:10:46;;;;;;;3.15;2.53;;;;;;;;;;4993931;28;20046;-89
2023/02/07 07:13:14;;;;;;;2.25;1.88;;;;;;;;;;4994797;28;20046;-88
2023/02/07 07:15:40;;;;;;;1.77;1.67;;;;;;;;;;4990850;28;20081;-88
2023/02/07 07:18:07;;;;;;;4.38;2.47;;;;;;;;;;4992390;28;20061;-88
2023/02/07 07:20:33;;;;;;;2.45;2.25;;;;;;;;;;4989805;28;20050;-88
2023/02/07 07:23:01;;;;;;;0.50;0.50;;;;;;;;;;4993887;28;20420;-88
2023/02/07 07:25:28;;;;;;;1.38;1.30;;;;;;;;;;4995138;28;20493;-88
2023/02/07 07:27:55;;;;;;;2.85;2.65;;;;;;;;;;4997370;28;20050;-88
2023/02/07 07:30:21;;;;;;;3.05;2.85;;;;;;;;;;4997007;28;20050;-88
2023/02/07 07:32:48;;;;;;;1.75;1.65;;;;;;;;;;4992853;28;20057;-88
2023/02/07 07:35:14;;;;;;;3.63;3.35;;;;;;;;;;4992255;28;20054;-88
2023/02/07 07:37:41;;;;;;;1.05;1.05;;;;;;;;;;4992551;28;20122;-88
2023/02/07 07:40:10;;;;;;;2.30;2.20;;;;;;;;;;4992781;28;20465;-88
2023/02/07 07:42:37;;;;;;;1.65;1.55;;;;;;;;;;4991285;28;20412;-88
2023/02/07 07:45:03;;;;;;;2.33;1.55;;;;;;;;;;5000974;28;20416;-88
2023/02/07 07:47:30;;;;;;;3.22;3.03;;;;;;;;;;4992239;28;20062;-87
2023/02/07 07:49:56;;;;;;;1.80;1.70;;;;;;;;;;4992535;28;20053;-87
2023/02/07 07:52:23;;;;;;;1.77;1.67;;;;;;;;;;4991999;28;20046;-88
2023/02/07 07:54:49;;;;;;;2.13;2.03;;;;;;;;;;4992474;28;20050;-88
2023/02/07 07:57:17;;;;;;;3.92;1.38;;;;;;;;;;4992167;28;20102;-88
2023/02/07 07:59:44;;;;;;;8.27;7.65;;;;;;;;;;4992054;28;20050;-88
2023/02/07 08:02:12;;;;;;;1.42;1.33;;;;;;;;;;4986964;28;20050;-87
2023/02/07 08:04:38;;;;;;;1.15;1.05;;;;;;;;;;4990336;28;20053;-87
2023/02/07 08:07:05;;;;;;;2.15;2.05;;;;;;;;;;4992042;28;20042;-88
2023/02/07 08:09:32;;;;;;;3.40;3.10;;;;;;;;;;4991408;28;20516;-88
2023/02/07 08:11:58;;;;;;;1.65;1.55;;;;;;;;;;4980877;28;20055;-88
2023/02/07 08:14:26;;;;;;;1.95;1.15;;;;;;;;;;5001746;28;20050;-87
2023/02/07 08:16:53;;;;;;;1.65;1.58;;;;;;;;;;4994969;28;20051;-87
2023/02/07 08:19:19;;;;;;;1.65;1.55;;;;;;;;;;4991346;28;20054;-87
2023/02/07 08:21:46;;;;;;;1.58;1.42;;;;;;;;;;4983184;28;20440;-87
2023/02/07 08:24:12;;;;;;;1.38;1.27;;;;;;;;;;4972444;28;20608;-87
2023/02/07 08:26:39;;;;;;;1.90;1.80;;;;;;;;;;4982248;28;20055;-87
2023/02/07 08:29:06;;;;;;;3.80;1.65;;;;;;;;;;4993582;28;20049;-88
2023/02/07 08:31:34;;;;;;;1.13;1.05;;;;;;;;;;5001344;28;20069;-87
2023/02/07 08:34:00;;;;;;;4.47;2.80;;;;;;;;;;5004280;28;20060;-86
2023/02/07 08:36:27;;;;;;;1.35;1.25;;;;;;;;;;5008085;28;20055;-87
2023/02/07 08:38:53;;;;;;;0.90;0.80;;;;;;;;;;4981690;28;20043;-86
2023/02/07 08:41:20;;;;;;;2.22;1.85;;;;;;;;;;4991100;28;20058;-89
2023/02/07 08:43:46;;;;;;;1.10;0.90;;;;;;;;;;4989751;28;20055;-90
2023/02/07 08:46:13;;;;;;;2.28;2.08;;;;;;;;;;4990761;28;20047;-89
2023/02/07 08:48:41;;;;;;;1.48;1.38;;;;;;;;;;4996316;28;20061;-87
2023/02/07 08:51:08;;;;;;;1.05;1.05;;;;;;;;;;4985135;28;20055;-89
2023/02/07 08:53:35;;;;;;;1.38;1.38;;;;;;;;;;4993183;28;20046;-89
2023/02/07 08:56:02;;;;;;;1.67;1.58;;;;;;;;;;5012100;28;20141;-89
2023/02/07 08:58:28;;;;;;;1.13;1.13;;;;;;;;;;4992830;28;20050;-89
2023/02/07 09:00:55;;;;;;;1.05;1.00;;;;;;;;;;4991911;28;20065;-88
2023/02/07 09:03:21;;;;;;;1.88;1.63;;;;;;;;;;4991405;28;20066;-86
2023/02/07 09:05:50;;;;;;;1.48;0.82;;;;;;;;;;4992202;28;20065;-87
2023/02/07 09:08:17;;;;;;;1.40;1.30;;;;;;;;;;4992776;28;20042;-90
2023/02/07 09:10:44;;;;;;;1.58;1.48;;;;;;;;;;4993143;28;20109;-88
2023/02/07 09:13:10;;;;;;;1.00;1.00;;;;;;;;;;4990043;28;20050;-89
2023/02/07 09:15:37;;;;;;;2.08;1.70;;;;;;;;;;4992076;28;20058;-89
2023/02/07 09:18:04;;;;;;;1.52;1.30;;;;;;;;;;4992176;28;20046;-89
2023/02/07 09:20:30;;;;;;;1.60;1.50;;;;;;;;;;4992678;28;20046;-91
2023/02/07 09:25:42;;;;;;;2.08;1.98;;;;;;;;;;5003285;28;20057;-91
2023/02/07 09:28:08;;;;;;;2.25;2.15;;;;;;;;;;5014962;28;20054;-90
2023/02/07 09:30:35;;;;;;;1.33;1.20;;;;;;;;;;4997825;28;20057;-91
2023/02/07 09:33:02;;;;;;;1.27;1.17;;;;;;;;;;4997956;28;20051;-89
2023/02/07 09:35:29;;;;;;;2.00;1.75;;;;;;;;;;4997713;28;20058;-89
2023/02/07 09:37:55;;;;;;;3.42;3.10;;;;;;;;;;4997904;28;20500;-89
2023/02/07 09:40:24;;;;;;;1.15;1.15;;;;;;;;;;5012901;28;20054;-91
2023/02/07 09:42:54;;;;;;;0.40;0.40;;;;;;;;;;4997959;28;20058;-92
2023/02/07 09:45:23;;;;;;;1.15;1.15;;;;;;;;;;4998238;28;20050;-92
2023/02/07 09:47:51;;;;;;;0.82;0.82;;;;;;;;;;4999050;28;20050;-91
2023/02/07 09:50:20;;;;;;;2.20;1.58;;;;;;;;;;4998774;28;20104;-92
2023/02/07 09:52:48;;;;;;;1.40;1.27;;;;;;;;;;4998461;28;20050;-92
2023/02/07 09:55:18;;;;;;;2.38;2.17;;;;;;;;;;4998940;28;20050;-92
2023/02/07 09:57:47;;;;;;;1.55;1.00;;;;;;;;;;4998973;28;20054;-91
2023/02/07 10:00:20;;;;;;;1.70;1.35;;;;;;;;;;4999143;28;20062;-92
2023/02/07 10:02:51;;;;;;;0.28;0.28;;;;;;;;;;4998498;28;20464;-92
2023/02/07 10:05:19;;;;;;;0.45;0.45;;;;;;;;;;4998887;28;20058;-91
2023/02/07 10:07:46;;;;;;;0.60;0.60;;;;;;;;;;4999354;28;20070;-90
2023/02/07 10:10:14;;;;;;;1.83;1.73;;;;;;;;;;4999765;28;20058;-91
2023/02/07 10:12:51;;;;;;;0.82;0.82;;;;;;;;;;4998552;28;20050;-91
2023/02/07 10:15:25;;;;;;;0.52;0.52;;;;;;;;;;4999322;28;20061;-91
2023/02/07 10:18:02;;;;;;;1.02;1.02;;;;;;;;;;4979923;28;20496;-92
2023/02/07 10:20:32;;;;;;;1.35;1.23;;;;;;;;;;4980432;28;20054;-93
2023/02/07 10:23:04;;;;;;;1.40;1.38;;;;;;;;;;4994469;28;20051;-91
2023/02/07 10:25:34;;;;;;;1.35;1.25;;;;;;;;;;5002802;28;20050;-92
2023/02/07 10:28:09;;;;;;;0.70;0.60;;;;;;;;;;5000866;28;20046;-91
2023/02/07 10:30:38;;;;;;;2.03;1.52;;;;;;;;;;4999780;28;20057;-92
2023/02/07 10:33:08;;;;;;;1.33;1.23;;;;;;;;;;5000948;28;20050;-90
2023/02/07 10:35:35;;;;;;;1.33;1.10;;;;;;;;;;5002065;28;20362;-91
2023/02/07 10:38:03;;;;;;;1.27;1.17;;;;;;;;;;4999861;28;20078;-92
2023/02/07 10:40:34;;;;;;;3.78;2.30;;;;;;;;;;4999440;28;20057;-91
2023/02/07 10:43:02;;;;;;;1.10;1.08;;;;;;;;;;4999336;28;20444;-90
2023/02/07 10:45:31;;;;;;;1.77;1.23;;;;;;;;;;4999835;28;20050;-91
2023/02/07 10:47:58;;;;;;;0.63;0.63;;;;;;;;;;4999793;28;20408;-91
2023/02/07 10:50:25;;;;;;;1.45;1.35;;;;;;;;;;5000086;28;20084;-91
2023/02/07 10:52:53;;;;;;;1.60;1.13;;;;;;;;;;4999440;28;20050;-90
2023/02/07 10:55:20;;;;;;;1.02;0.93;;;;;;;;;;4998036;28;20423;-91
2023/02/07 10:57:54;;;;;;;1.55;1.27;;;;;;;;;;4999187;28;20677;-92
2023/02/07 11:00:24;;;;;;;0.88;0.88;;;;;;;;;;4997854;28;20496;-90
2023/02/07 11:02:53;;;;;;;2.45;1.52;;;;;;;;;;4999442;28;20393;-90
2023/02/07 11:05:34;;;;;;;1.33;0.88;;;;;;;;;;4997403;28;20393;-90
2023/02/07 11:08:01;;;;;;;1.55;1.45;;;;;;;;;;4997434;28;20480;-90
2023/02/07 11:10:31;;;;;;;1.77;1.35;;;;;;;;;;4996622;28;20412;-90
2023/02/07 11:12:59;;;;;;;2.58;2.38;;;;;;;;;;4996646;28;20133;-91
2023/02/07 11:15:28;;;;;;;1.88;1.67;;;;;;;;;;4997124;28;20057;-90
2023/02/07 11:17:57;;;;;;;1.98;1.02;;;;;;;;;;4996847;28;20416;-89
2023/02/07 11:20:26;;;;;;;1.63;1.50;;;;;;;;;;4996161;28;20058;-90
2023/02/07 11:22:53;;;;;;;1.50;1.25;;;;;;;;;;4996918;28;20046;-90
2023/02/07 11:25:27;;;;;;;5.20;2.38;;;;;;;;;;4997943;28;20066;-91
2023/02/07 11:27:54;;;;;;;0.82;0.82;;;;;;;;;;4998409;28;20046;-91
2023/02/07 11:30:21;;;;;;;0.80;0.80;;;;;;;;;;4997879;28;20057;-89
2023/02/07 11:32:54;;;;;;;1.42;1.33;;;;;;;;;;5000777;28;20054;-90
2023/02/07 11:35:22;;;;;;;0.60;0.52;;;;;;;;;;4996678;28;20054;-89
2023/02/07 11:37:58;;;;;;;1.52;1.42;;;;;;;;;;4996677;28;20062;-90
2023/02/07 11:40:27;;;;;;;1.98;1.33;;;;;;;;;;4997656;28;20054;-90
2023/02/07 11:42:58;;;;;;;5.68;2.72;;;;;;;;;;4997049;28;20050;-89
2023/02/07 11:45:33;;;;;;;2.85;2.20;;;;;;;;;;4996452;28;20050;-90
2023/02/07 11:48:00;;;;;;;0.65;0.65;;;;;;;;;;4995679;28;20050;-90
2023/02/07 11:50:30;;;;;;;0.80;0.47;;;;;;;;;;4995293;28;20420;-91
2023/02/07 11:52:58;;;;;;;1.10;1.10;;;;;;;;;;4994114;28;20050;-91
2023/02/07 11:55:26;;;;;;;1.58;1.48;;;;;;;;;;4995184;28;20054;-91
2023/02/07 11:57:56;;;;;;;1.52;1.33;;;;;;;;;;4995082;28;20042;-91
2023/02/07 12:00:24;;;;;;;3.75;3.33;;;;;;;;;;4994813;28;20078;-90
2023/02/07 12:02:51;;;;;;;0.43;0.43;;;;;;;;;;4994806;28;20057;-90
2023/02/07 12:05:20;;;;;;;2.17;1.55;;;;;;;;;;4995168;28;20054;-90
2023/02/07 12:07:50;;;;;;;0.50;0.40;;;;;;;;;;4995515;28;20054;-91
2023/02/07 12:10:21;;;;;;;1.77;1.08;;;;;;;;;;4995229;28;20053;-90
2023/02/07 12:12:49;;;;;;;1.15;1.15;;;;;;;;;;4994883;28;20051;-91
2023/02/07 12:15:18;;;;;;;0.98;0.77;;;;;;;;;;4994548;28;20054;-90
2023/02/07 12:18:01;;;;;;;2.38;1.92;;;;;;;;;;4995007;28;20050;-91
2023/02/07 12:20:30;;;;;;;1.85;1.75;;;;;;;;;;4996471;28;20410;-91
2023/02/07 12:23:03;;;;;;;1.90;1.25;;;;;;;;;;4997088;28;20069;-90
2023/02/07 12:25:33;;;;;;;4.10;2.47;;;;;;;;;;4996479;28;20058;-90
2023/02/07 12:28:04;;;;;;;1.33;1.23;;;;;;;;;;4997536;28;20404;-91
2023/02/07 12:30:33;;;;;;;8.88;1.52;;;;;;;;;;4998012;28;20393;-92
2023/02/07 12:33:04;;;;;;;2.90;1.50;;;;;;;;;;4997953;28;20042;-90
2023/02/07 12:35:34;;;;;;;2.08;1.67;;;;;;;;;;4998823;28;21020;-91
2023/02/07 12:38:06;;;;;;;2.25;1.67;;;;;;;;;;4998723;28;20081;-93
2023/02/07 12:40:34;;;;;;;3.13;2.47;;;;;;;;;;4998884;28;20050;-92
2023/02/07 12:43:03;;;;;;;2.63;1.60;;;;;;;;;;5003912;28;20046;-92
2023/02/07 12:45:38;;;;;;;2.08;1.92;;;;;;;;;;5002520;28;20055;-93
2023/02/07 12:48:10;;;;;;;1.63;1.50;;;;;;;;;;5000874;28;20057;-93
2023/02/07 12:50:46;;;;;;;1.35;1.25;;;;;;;;;;5002733;28;20065;-93
2023/02/07 12:53:23;;;;;;;2.17;1.98;;;;;;;;;;5003329;28;20057;-92
2023/02/07 12:55:55;;;;;;;2.40;2.28;;;;;;;;;;5001985;28;20047;-92
2023/02/07 12:58:30;;;;;;;1.20;1.20;;;;;;;;;;4982793;28;20497;-91
2023/02/07 13:01:00;;;;;;;1.15;1.15;;;;;;;;;;5015269;28;20061;-92
2023/02/07 13:03:37;;;;;;;1.38;0.82;;;;;;;;;;5020777;28;20046;-92
2023/02/07 13:06:11;;;;;;;3.83;2.17;;;;;;;;;;5006869;28;20050;-92
2023/02/07 13:08:44;;;;;;;1.77;1.58;;;;;;;;;;5002823;28;20488;-92
2023/02/07 13:11:17;;;;;;;2.97;1.50;;;;;;;;;;5005319;28;20172;-92
2023/02/07 13:14:01;;;;;;;2.97;1.20;;;;;;;;;;5014175;28;20045;-92
2023/02/07 13:16:30;;;;;;;1.73;1.63;;;;;;;;;;5005952;28;20053;-90
2023/02/07 13:19:00;;;;;;;1.70;1.38;;;;;;;;;;5001369;28;20463;-92
2023/02/07 13:21:29;;;;;;;1.70;1.60;;;;;;;;;;5007447;28;20405;-92
2023/02/07 13:23:59;;;;;;;0.65;0.65;;;;;;;;;;5006712;28;20060;-92
2023/02/07 13:26:26;;;;;;;3.22;1.75;;;;;;;;;;5002078;28;20054;-91
2023/02/07 13:28:54;;;;;;;1.52;1.23;;;;;;;;;;4998890;28;20120;-92
2023/02/07 13:31:24;;;;;;;1.85;1.75;;;;;;;;;;4998222;28;20485;-93
2023/02/07 13:33:52;;;;;;;0.88;0.88;;;;;;;;;;4992578;28;20050;-93
2023/02/07 13:36:22;;;;;;;1.05;0.93;;;;;;;;;;5005585;28;20049;-93
2023/02/07 13:39:13;;;;;;;2.75;2.45;;;;;;;;;;5017975;28;20062;-94
2023/02/07 13:41:46;;;;;;;1.30;0.82;;;;;;;;;;5004253;28;20050;-92
2023/02/07 13:44:19;;;;;;;0.52;0.52;;;;;;;;;;5007616;28;20053;-93
2023/02/07 13:47:06;;;;;;;1.63;1.15;;;;;;;;;;4998314;28;20613;-92
2023/02/07 13:49:40;;;;;;;1.98;1.17;;;;;;;;;;4986735;28;20046;-90
2023/02/07 13:52:11;;;;;;;2.58;1.58;;;;;;;;;;5016725;28;20050;-92
2023/02/07 13:54:43;;;;;;;1.20;1.10;;;;;;;;;;5014859;28;20470;-93
2023/02/07 14:00:08;;;;;;;1.02;1.02;;;;;;;;;;5011465;28;20072;-92
2023/02/07 14:02:40;;;;;;;1.73;1.20;;;;;;;;;;5017093;28;20057;-92
2023/02/07 14:05:08;;;;;;;2.38;2.20;;;;;;;;;;5005264;28;20042;-93
2023/02/07 14:07:35;;;;;;;2.45;1.60;;;;;;;;;;4995575;28;20054;-91
2023/02/07 14:10:04;;;;;;;5.28;3.30;;;;;;;;;;4998098;28;20042;-92
2023/02/07 14:12:32;;;;;;;1.33;1.23;;;;;;;;;;5016654;28;20057;-90
2023/02/07 14:15:18;;;;;;;1.08;0.98;;;;;;;;;;5002519;28;20125;-93
2023/02/07 14:17:58;;;;;;;2.60;1.67;;;;;;;;;;4997045;28;20054;-92
2023/02/07 14:20:46;;;;;;;0.40;0.40;;;;;;;;;;4978213;28;20105;-93
2023/02/07 14:23:14;;;;;;;1.88;1.52;;;;;;;;;;4986286;28;20046;-92
2023/02/07 14:25:42;;;;;;;0.80;0.75;;;;;;;;;;4997139;28;20050;-92
2023/02/07 14:28:24;;;;;;;2.78;1.95;;;;;;;;;;4997163;28;20105;-92
2023/02/07 14:30:58;;;;;;;3.30;3.10;;;;;;;;;;5011226;28;20501;-92
2023/02/07 14:33:29;;;;;;;1.48;1.38;;;;;;;;;;4992197;28;20055;-92
2023/02/07 14:36:14;;;;;;;2.47;1.98;;;;;;;;;;4978989;28;20082;-93
2023/02/07 14:38:42;;;;;;;0.93;0.57;;;;;;;;;;4971770;28;20042;-92
2023/02/07 14:41:11;;;;;;;0.88;0.60;;;;;;;;;;4996977;28;20054;-93
2023/02/07 14:43:48;;;;;;;1.23;1.13;;;;;;;;;;4996490;28;20046;-93
2023/02/07 14:46:16;;;;;;;3.03;1.45;;;;;;;;;;4997280;28;20508;-93
2023/02/07 14:48:46;;;;;;;0.55;0.50;;;;;;;;;;4997272;28;20054;-93
2023/02/07 14:51:14;;;;;;;4.00;1.70;;;;;;;;;;4996913;28;20054;-92
2023/02/07 14:53:43;;;;;;;0.80;0.80;;;;;;;;;;5004810;28;20046;-92
2023/02/07 14:56:20;;;;;;;1.38;1.27;;;;;;;;;;5016479;28;20049;-93
2023/02/07 14:58:47;;;;;;;0.95;0.70;;;;;;;;;;5016574;28;20053;-94
2023/02/07 15:01:18;;;;;;;2.30;1.30;;;;;;;;;;5023927;28;20053;-93